Terminal Aerodrome Forecast
Issued by NWS Charleston, WV

Current Version | Previous Version | Graphics & Text | Print | Product List | Glossary On
Versions: 1 2 3 4 5 6 7 8 9 10 11 12 13 14 15 16 17 18 19 20 21 22
000
FTUS41 KRLX 151044 AAA
TAFPKB
TAF AMD
KPKB 151044Z 1511/1606 00000KT P6SM BKN120
     FM151600 26006KT P6SM BKN090
     FM152000 26009G17KT P6SM BKN040
     FM160300 25009KT P6SM BKN040=

USA.gov is the U.S. government's official web portal to all federal, state and local government web resources and services.